createdAt,value
2019-03-25T00:03:23.245Z,97322.33
2019-03-25T00:08:17.991Z,97327.17
2019-03-25T00:13:12.566Z,97326.37
2019-03-25T00:18:07.242Z,97321.32
2019-03-25T00:23:01.813Z,97320.53
2019-03-25T00:27:56.446Z,97322.55
2019-03-25T00:32:51.007Z,97326.48
2019-03-25T00:37:45.644Z,97317.63
2019-03-25T00:42:59.688Z,97316.80
2019-03-25T00:47:54.267Z,97309.75
2019-03-25T00:52:48.863Z,97306.93
2019-03-25T00:57:43.439Z,97306.93
2019-03-25T01:02:38.100Z,97309.55
2019-03-25T01:07:32.674Z,97301.20
2019-03-25T01:12:27.267Z,97301.69
2019-03-25T01:17:21.864Z,97299.66
2019-03-25T01:22:16.470Z,97295.44
2019-03-25T01:27:11.036Z,97300.28
2019-03-25T01:32:05.626Z,97293.30
2019-03-25T01:37:00.206Z,97290.00
2019-03-25T01:41:54.795Z,97290.53
2019-03-25T01:46:49.365Z,97291.14
2019-03-25T01:51:43.963Z,97284.80
2019-03-25T01:56:38.538Z,97286.69
2019-03-25T02:01:33.199Z,97283.48
2019-03-25T02:06:27.768Z,97289.81
2019-03-25T02:11:22.549Z,97291.44
2019-03-25T02:16:17.094Z,97286.80
2019-03-25T02:21:11.686Z,97279.77
2019-03-25T02:26:06.270Z,97293.47
2019-03-25T02:31:00.873Z,97284.09
2019-03-25T02:35:55.433Z,97294.23
2019-03-25T02:40:50.023Z,97281.66
2019-03-25T02:45:44.613Z,97283.95
2019-03-25T02:50:39.201Z,97286.56
2019-03-25T02:55:41.488Z,97286.77
2019-03-25T03:00:40.160Z,97285.44
2019-03-25T03:05:35.102Z,97284.81
2019-03-25T03:10:29.702Z,97282.78
2019-03-25T03:15:24.292Z,97289.89
2019-03-25T03:20:19.437Z,97297.11
2019-03-25T03:25:14.008Z,97291.67
2019-03-25T03:30:09.630Z,97284.04
2019-03-25T03:35:06.459Z,97285.56
2019-03-25T03:40:01.036Z,97290.15
2019-03-25T03:44:55.622Z,97283.95
2019-03-25T03:49:50.214Z,97282.43
2019-03-25T03:54:45.727Z,97282.38
2019-03-25T03:59:40.764Z,97284.30
2019-03-25T04:04:35.318Z,97274.53
2019-03-25T04:09:29.909Z,97276.05
2019-03-25T04:14:24.479Z,97283.78
2019-03-25T04:19:19.067Z,97277.89
2019-03-25T04:24:13.644Z,97288.55
2019-03-25T04:29:08.252Z,97294.17
2019-03-25T04:34:02.827Z,97297.58
2019-03-25T04:38:57.421Z,97301.50
2019-03-25T04:43:54.410Z,97297.89
2019-03-25T04:48:48.310Z,97295.19
2019-03-25T04:53:42.893Z,97296.74
2019-03-25T04:58:37.498Z,97304.36
2019-03-25T05:03:32.084Z,97304.51
2019-03-25T05:08:26.688Z,97301.11
2019-03-25T05:13:21.254Z,97307.34
2019-03-25T05:18:15.852Z,97303.66
2019-03-25T05:23:10.424Z,97308.12
2019-03-25T05:28:05.021Z,97308.28
2019-03-25T05:32:59.593Z,97310.72
2019-03-25T05:37:54.178Z,97311.97
2019-03-25T05:42:48.767Z,97316.06
2019-03-25T05:47:43.364Z,97315.52
2019-03-25T05:52:37.936Z,97311.83
2019-03-25T05:57:32.540Z,97312.14
2019-03-25T06:02:27.105Z,97324.86
2019-03-25T06:07:21.718Z,97332.48
2019-03-25T06:12:16.307Z,97336.94
2019-03-25T06:17:10.904Z,97336.11
2019-03-25T06:22:05.535Z,97337.97
2019-03-25T06:27:00.353Z,97332.53
2019-03-25T06:31:54.927Z,97331.23
2019-03-25T06:36:49.516Z,97323.95
2019-03-25T06:41:44.091Z,97321.41
2019-03-25T06:46:38.685Z,97316.91
2019-03-25T06:51:33.261Z,97313.08
2019-03-25T06:56:27.931Z,97317.13
2019-03-25T07:01:22.500Z,97316.30
2019-03-25T07:06:17.684Z,97309.45
2019-03-25T07:11:12.625Z,97321.73
2019-03-25T07:16:07.236Z,97324.03
2019-03-25T07:21:01.850Z,97327.59
2019-03-25T07:25:56.698Z,97327.07
2019-03-25T07:30:52.364Z,97340.46
2019-03-25T07:35:47.137Z,97334.91
2019-03-25T07:40:47.656Z,97338.84
2019-03-25T07:45:51.244Z,97332.80
2019-03-25T07:50:50.474Z,97335.81
2019-03-25T07:55:45.273Z,97331.56
2019-03-25T08:00:40.007Z,97332.67
2019-03-25T08:05:39.752Z,97328.83
2019-03-25T08:10:36.070Z,97334.28
2019-03-25T08:15:30.830Z,97333.25
2019-03-25T08:20:25.430Z,97331.64
2019-03-25T08:25:20.030Z,97333.09
2019-03-25T08:30:15.910Z,97330.50
2019-03-25T08:35:13.887Z,97331.48
2019-03-25T08:40:10.742Z,97328.27
2019-03-25T08:45:07.498Z,97336.14
2019-03-25T08:50:02.212Z,97340.34
2019-03-25T08:54:59.361Z,97344.61
2019-03-25T08:59:54.195Z,97332.84
2019-03-25T09:04:48.809Z,97330.40
2019-03-25T09:09:43.717Z,97336.55
2019-03-25T09:14:40.985Z,97338.02
2019-03-25T09:19:36.102Z,97349.34
2019-03-25T09:24:32.951Z,97339.73
2019-03-25T09:29:27.406Z,97351.94
2019-03-25T09:34:22.032Z,97341.81
2019-03-25T09:39:16.769Z,97343.70
2019-03-25T09:44:11.607Z,97349.77
2019-03-25T09:49:06.321Z,97348.32
2019-03-25T09:54:00.932Z,97353.94
2019-03-25T09:58:55.505Z,97346.75
2019-03-25T10:03:52.452Z,97352.27
2019-03-25T10:08:47.109Z,97353.55
2019-03-25T10:13:44.364Z,97361.13
2019-03-25T10:18:41.479Z,97377.91
2019-03-25T10:23:37.160Z,97375.14
2019-03-25T10:28:31.770Z,97372.92
2019-03-25T10:33:30.705Z,97376.06
2019-03-25T10:38:27.428Z,97381.45
2019-03-25T10:43:22.037Z,97367.20
2019-03-25T10:48:16.805Z,97356.64
2019-03-25T10:53:11.480Z,97361.27
2019-03-25T10:58:06.193Z,97358.59
2019-03-25T11:03:01.656Z,97358.91
2019-03-25T11:07:56.618Z,97374.65
2019-03-25T11:12:51.305Z,97368.32
2019-03-25T11:17:46.923Z,97352.16
2019-03-25T11:22:41.549Z,97341.81
2019-03-25T11:27:36.246Z,97337.53
2019-03-25T11:32:30.903Z,97328.93
2019-03-25T11:37:25.527Z,97332.87
2019-03-25T11:42:20.110Z,97338.16
2019-03-25T11:47:20.177Z,97324.01
2019-03-25T11:52:19.038Z,97325.88
2019-03-25T11:57:17.326Z,97343.95
2019-03-25T12:02:18.060Z,97343.38
2019-03-25T12:07:20.318Z,97357.20
2019-03-25T12:12:20.304Z,97353.69
2019-03-25T12:17:21.220Z,97348.05
2019-03-25T12:22:22.613Z,97345.95
2019-03-25T12:27:22.471Z,97350.95
2019-03-25T12:32:23.663Z,97350.78
2019-03-25T12:37:24.933Z,97345.31
2019-03-25T12:42:23.981Z,97342.86
2019-03-25T12:47:18.731Z,97329.11
2019-03-25T12:52:13.355Z,97329.38
2019-03-25T12:57:07.957Z,97325.25
2019-03-25T13:02:02.588Z,97322.37
2019-03-25T13:06:57.189Z,97312.05
2019-03-25T13:11:52.041Z,97338.38
2019-03-25T13:16:46.928Z,97334.79
2019-03-25T13:21:42.853Z,97338.13
2019-03-25T13:26:37.942Z,97338.30
2019-03-25T13:31:32.653Z,97331.19
2019-03-25T13:36:27.256Z,97315.33
2019-03-25T13:41:22.016Z,97313.03
2019-03-25T13:46:16.801Z,97314.50
2019-03-25T13:51:11.410Z,97321.05
2019-03-25T13:56:06.370Z,97308.70
2019-03-25T14:01:01.300Z,97306.57
2019-03-25T14:05:57.955Z,97303.13
2019-03-25T14:10:52.365Z,97301.34
2019-03-25T14:15:47.022Z,97305.09
2019-03-25T14:20:59.320Z,97317.85
2019-03-25T14:25:53.962Z,97324.17
2019-03-25T14:30:48.571Z,97323.61
2019-03-25T14:35:43.173Z,97341.39
2019-03-25T14:40:37.918Z,97338.70
2019-03-25T14:45:32.681Z,97346.63
2019-03-25T14:50:27.405Z,97337.84
2019-03-25T14:55:22.155Z,97342.61
2019-03-25T15:00:25.073Z,97336.30
2019-03-25T15:05:14.785Z,97338.63
2019-03-25T15:10:10.178Z,97335.70
2019-03-25T15:15:10.740Z,97328.91
2019-03-25T15:20:10.165Z,97347.66
2019-03-25T15:25:08.642Z,97359.95
2019-03-25T15:30:04.335Z,97377.48
2019-03-25T15:35:00.372Z,97390.41
2019-03-25T15:39:54.955Z,97395.90
2019-03-25T15:44:49.525Z,97390.23
2019-03-25T15:49:44.370Z,97382.86
2019-03-25T15:54:38.969Z,97389.16
2019-03-25T15:59:33.661Z,97393.59
2019-03-25T16:04:28.259Z,97396.66
2019-03-25T16:09:23.224Z,97401.22
2019-03-25T16:14:17.818Z,97402.53
2019-03-25T16:19:12.498Z,97409.33
2019-03-25T16:24:07.169Z,97416.55
2019-03-25T16:29:03.924Z,97431.87
2019-03-25T16:33:58.658Z,97434.53
2019-03-25T16:38:53.269Z,97430.48
2019-03-25T16:43:47.854Z,97426.12
2019-03-25T16:48:42.442Z,97431.98
2019-03-25T16:53:37.015Z,97433.39
2019-03-25T16:58:31.631Z,97431.77
2019-03-25T17:03:26.290Z,97445.03
2019-03-25T17:08:20.957Z,97455.17
2019-03-25T17:13:15.569Z,97558.91
2019-03-25T17:18:10.152Z,97573.61
2019-03-25T17:23:04.814Z,97606.66
2019-03-25T17:27:59.413Z,97603.17
2019-03-25T17:32:54.007Z,97622.61
2019-03-25T17:37:48.614Z,97619.25
2019-03-25T17:42:43.255Z,97599.02
2019-03-25T17:47:37.920Z,97571.97
2019-03-25T17:52:32.514Z,97582.84
2019-03-25T17:57:27.267Z,97588.97
2019-03-25T18:02:21.859Z,97595.25
2019-03-25T18:07:16.466Z,97591.53
2019-03-25T18:12:11.736Z,97594.12
2019-03-25T18:17:06.414Z,97586.50
2019-03-25T18:22:01.090Z,97570.92
2019-03-25T18:26:55.677Z,97575.45
2019-03-25T18:31:50.267Z,97577.06
2019-03-25T18:36:44.841Z,97581.11
2019-03-25T18:41:39.455Z,97578.17
2019-03-25T18:46:34.190Z,97578.00
2019-03-25T18:51:28.839Z,97567.09
2019-03-25T18:56:23.431Z,97578.13
2019-03-25T19:01:18.202Z,97595.02
2019-03-25T19:06:12.807Z,97598.61
2019-03-25T19:11:07.405Z,97600.08
2019-03-25T19:16:02.046Z,97612.41
2019-03-25T19:20:56.645Z,97627.14
2019-03-25T19:25:51.270Z,97620.52
2019-03-25T19:30:45.854Z,97623.63
2019-03-25T19:35:40.464Z,97626.86
2019-03-25T19:40:35.101Z,97623.77
2019-03-25T19:45:30.795Z,97631.74
2019-03-25T19:50:25.536Z,97631.44
2019-03-25T19:55:20.313Z,97634.05
2019-03-25T20:00:16.004Z,97624.97
2019-03-25T20:05:11.058Z,97628.55
2019-03-25T20:10:10.443Z,97630.81
2019-03-25T20:15:07.972Z,97636.33
2019-03-25T20:20:02.762Z,97642.83
2019-03-25T20:24:57.513Z,97634.36
2019-03-25T20:29:52.276Z,97643.91
2019-03-25T20:34:46.967Z,97644.73
2019-03-25T20:39:41.553Z,97654.47
2019-03-25T20:44:36.186Z,97661.09
2019-03-25T20:49:30.866Z,97661.52
2019-03-25T20:54:25.616Z,97658.41
2019-03-25T20:59:20.328Z,97670.71
2019-03-25T21:04:15.036Z,97670.06
2019-03-25T21:09:09.779Z,97670.41
2019-03-25T21:14:04.587Z,97667.96
2019-03-25T21:18:59.182Z,97675.39
2019-03-25T21:23:53.779Z,97668.39
2019-03-25T21:28:48.369Z,97659.81
2019-03-25T21:33:43.094Z,97655.09
2019-03-25T21:38:37.703Z,97660.44
2019-03-25T21:43:32.324Z,97654.84
2019-03-25T21:48:26.948Z,97667.29
2019-03-25T21:53:21.627Z,97663.70
2019-03-25T21:58:16.261Z,97662.23
2019-03-25T22:03:12.502Z,97654.96
2019-03-25T22:08:07.289Z,97653.95
2019-03-25T22:13:01.878Z,97651.38
2019-03-25T22:17:56.451Z,97657.61
2019-03-25T22:22:51.036Z,97670.52
2019-03-25T22:27:45.605Z,97665.65
2019-03-25T22:32:40.203Z,97660.22
2019-03-25T22:37:34.859Z,97670.03
2019-03-25T22:42:29.468Z,97673.75
2019-03-25T22:47:24.075Z,97660.08
2019-03-25T22:52:18.670Z,97666.58
2019-03-25T22:57:13.273Z,97658.60
2019-03-25T23:02:07.987Z,97668.50
2019-03-25T23:07:02.605Z,97679.61
2019-03-25T23:11:57.302Z,97677.66
2019-03-25T23:16:51.930Z,97682.86
2019-03-25T23:21:46.506Z,97687.22
2019-03-25T23:26:41.178Z,97680.88
2019-03-25T23:31:35.798Z,97684.80
2019-03-25T23:36:30.364Z,97682.65
2019-03-25T23:41:24.943Z,97694.36
2019-03-25T23:46:19.532Z,97701.02
2019-03-25T23:51:14.126Z,97702.97
2019-03-25T23:56:08.736Z,97703.13
